Startpagina
METAR-TAF:

METAR-TAF

Vliegvelden :

Kristianstad Österlen Airport

Kristianstad, Zweden

breedte: 55-55N, lengte: 014-05E, hoogte: 23 m

Actueel weer

Dit bericht is 18 minuten geleden gemaakt, om 05:50 UTC
Wind 5 kt uit het noordnoordwesten
Temperatuur 14°C
Vochtigheid 100%
Druk 1008 hPa
Zicht 10 km of meer
Geheel bewolkt op 400 ft

METAR: ESMK 170550Z 33005KT 9999 OVC004 14/14 Q1008

Tijdstip: 08:08 (06:08 UTC)

Verwachting

Dit bericht is 57 minuten geleden gemaakt, om 05:11 UTC
Verwachting geldig van 17 om 06 UTC tot 17 om 15 UTC
Wind 8 kt uit het noordnoordoosten
Zicht 10 km of meer
Gebroken wolken op 1500 ft
Tijdelijke
van 17 om 06 UTC tot 17 om 15 UTC
Zicht: 3000 m
Gebroken wolken op 400 ft
Verspreide wolken op 1500 ft, Stapelwolken.
lichte regenbuien, nevel

TAF: ESMK 170511Z 1706/1715 03008KT 9999 BKN015 TEMPO 1706/1715 3000 -SHRA BR BKN004 SCT015TCU

Waarnemingen en weersverwachtingen van meer dan 4000 vliegvelden (METAR en TAF).

De beschikbare stations zijn de gele en rode punten op de kaart.

Ga met uw muis naar het station om de naam te zien.

Klik dan om waarnemingen en weersverwachtingen te zien.

kaart wijzigen: klik op de groene knoppen met een zwart kruis om in te zoomen, op de groene knop met een streepje om uit te zoomen of op de groene pijlen voor aangrenzende kaarten.


METAR-TAF: